Time;durP1;ratioP1;P1;durP2;ratioP2;P2;SDS_P1;SDS_P2;PMS_P1;PMS_P2;Temp;Humidity;BMP_temperature;BMP_pressure;BME280_temperature;BME280_humidity;BME280_pressure;Samples;Min_cycle;Max_cycle;Signal;HPM_P1;HPM_P2
2022/02/05 00:00:39;;;;;;;9.57;1.55;;;;;;;5.09;78.10;101434.34;5054576;28;20071;-62
2022/02/05 00:03:15;;;;;;;10.07;1.75;;;;;;;5.10;77.64;101435.97;5053779;28;20021;-62
2022/02/05 00:05:58;;;;;;;12.45;1.90;;;;;;;5.20;78.78;101438.50;5053622;28;20017;-63
2022/02/05 00:08:36;;;;;;;13.13;2.22;;;;;;;5.13;78.45;101440.00;5054252;28;20025;-64
2022/02/05 00:43:12;;;;;;;13.70;2.05;;;;;;;5.07;79.09;101461.84;5055187;28;20037;-62
2022/02/05 00:45:41;;;;;;;14.80;2.20;;;;;;;5.13;78.22;101473.31;5055134;28;20032;-61
2022/02/05 00:48:07;;;;;;;12.25;2.15;;;;;;;5.18;78.60;101469.41;5036967;28;20426;-61
2022/02/05 00:50:37;;;;;;;8.65;2.13;;;;;;;5.10;77.48;101471.03;5054753;28;20025;-60
2022/02/05 00:53:09;;;;;;;10.55;2.03;;;;;;;4.97;80.98;101484.88;5054712;28;20021;-63
2022/02/05 00:55:35;;;;;;;11.23;2.15;;;;;;;5.02;77.58;101487.06;5054357;28;20029;-63
2022/02/05 00:58:05;;;;;;;12.55;2.17;;;;;;;4.93;79.23;101483.53;5036032;28;20043;-61
2022/02/05 01:00:36;;;;;;;14.07;2.20;;;;;;;5.03;78.13;101487.84;5054534;28;20025;-63
2022/02/05 01:03:02;;;;;;;12.95;2.50;;;;;;;5.01;79.42;101505.13;5036658;28;20467;-61
2022/02/05 01:05:27;;;;;;;11.63;2.30;;;;;;;5.03;78.88;101498.09;5054398;28;20151;-63
2022/02/05 01:07:56;;;;;;;11.93;2.42;;;;;;;5.01;79.49;101500.81;5035374;28;20615;-61
2022/02/05 01:10:22;;;;;;;13.35;2.75;;;;;;;4.96;79.46;101502.97;5052230;28;20044;-64
2022/02/05 01:12:53;;;;;;;14.13;2.28;;;;;;;4.85;80.58;101503.06;5053123;28;20469;-61
2022/02/05 01:15:22;;;;;;;21.25;2.60;;;;;;;4.75;80.57;101503.06;5054056;28;20360;-62
2022/02/05 01:17:54;;;;;;;12.60;2.28;;;;;;;4.75;81.26;101508.97;5053962;28;20036;-61
2022/02/05 01:23:07;;;;;;;13.70;2.13;;;;;;;4.68;80.34;101513.00;5054141;28;20129;-62
2022/02/05 01:25:38;;;;;;;8.60;2.15;;;;;;;4.70;80.43;101521.34;5054351;28;20029;-61
2022/02/05 01:28:13;;;;;;;16.58;2.22;;;;;;;4.66;81.20;101516.63;5054105;28;20021;-61
2022/02/05 01:30:43;;;;;;;10.10;1.95;;;;;;;4.63;80.26;101530.50;5053963;28;20024;-62
2022/02/05 01:35:47;;;;;;;8.63;1.85;;;;;;;4.60;81.72;101532.50;5054105;28;20039;-61
2022/02/05 01:52:16;;;;;;;12.95;2.45;;;;;;;4.28;83.41;101559.03;5053935;28;20029;-61
2022/02/05 01:57:42;;;;;;;14.32;2.40;;;;;;;4.30;82.31;101563.09;5054255;28;20089;-62
2022/02/05 02:05:28;;;;;;;18.27;1.88;;;;;;;4.42;81.62;101596.28;5053896;28;20049;-63
2022/02/05 02:10:42;;;;;;;12.75;2.10;;;;;;;4.44;81.57;101579.06;5053411;28;20029;-62
2022/02/05 02:13:37;;;;;;;11.93;2.00;;;;;;;4.45;82.72;101581.47;5053621;28;20453;-63
2022/02/05 02:18:38;;;;;;;13.55;2.40;;;;;;;4.42;82.46;101593.72;5053475;28;20072;-61
2022/02/05 02:21:21;;;;;;;19.25;2.58;;;;;;;4.42;83.59;101589.41;5053290;28;20025;-62
2022/02/05 02:29:31;;;;;;;13.65;2.25;;;;;;;4.47;82.49;101597.53;5008811;28;20040;-61
2022/02/05 02:31:58;;;;;;;12.68;2.03;;;;;;;4.48;82.34;101599.13;5035321;28;20117;-61
2022/02/05 02:34:28;;;;;;;12.07;2.20;;;;;;;4.53;81.73;101591.88;5053140;28;20051;-62
2022/02/05 02:36:58;;;;;;;12.82;2.30;;;;;;;4.45;82.62;101598.59;5035154;28;20119;-61
2022/02/05 02:39:33;;;;;;;18.20;3.15;;;;;;;4.45;82.61;101607.06;5035189;28;20021;-62
2022/02/05 02:42:04;;;;;;;14.43;2.15;;;;;;;4.53;82.40;101609.00;5035210;28;20537;-62
2022/02/05 02:44:29;;;;;;;12.00;2.08;;;;;;;4.52;83.18;101607.41;5052994;28;20379;-62
2022/02/05 02:46:55;;;;;;;14.60;2.70;;;;;;;4.50;82.40;101615.19;5053513;28;20025;-62
2022/02/05 02:50:08;;;;;;;16.75;2.58;;;;;;;4.48;82.52;101613.69;5053272;28;20033;-62
2022/02/05 02:57:40;;;;;;;11.73;2.03;;;;;;;4.51;82.21;101626.22;5053303;28;20068;-61
2022/02/05 03:00:10;;;;;;;11.32;2.40;;;;;;;4.52;82.30;101631.25;5035051;28;20056;-62
2022/02/05 03:02:36;;;;;;;13.23;2.00;;;;;;;4.58;81.55;101634.25;5052797;28;20051;-62
2022/02/05 03:05:02;;;;;;;12.20;2.35;;;;;;;4.65;81.46;101635.34;5052624;28;20033;-62
2022/02/05 03:07:27;;;;;;;13.68;2.25;;;;;;;4.54;82.91;101636.22;5034912;28;20059;-62
2022/02/05 03:09:55;;;;;;;13.90;2.10;;;;;;;4.63;82.63;101634.66;5034907;28;20024;-60
2022/02/05 03:12:20;;;;;;;18.25;2.42;;;;;;;4.56;82.33;101652.28;5052689;28;20032;-61
2022/02/05 03:14:47;;;;;;;12.70;2.15;;;;;;;4.62;82.68;101651.75;5034858;28;20048;-60
2022/02/05 03:17:23;;;;;;;15.98;2.60;;;;;;;4.65;82.21;101651.50;5034584;28;20044;-61
2022/02/05 03:19:51;;;;;;;13.75;1.92;;;;;;;4.58;84.71;101652.16;5053851;28;20434;-61
2022/02/05 03:22:18;;;;;;;34.90;2.42;;;;;;;4.59;82.12;101646.09;5038528;28;20055;-61
2022/02/05 03:24:44;;;;;;;15.70;2.38;;;;;;;4.64;82.88;101651.66;5056389;28;20035;-62
2022/02/05 03:27:12;;;;;;;17.65;2.78;;;;;;;4.71;82.42;101651.00;5056389;28;20017;-62
2022/02/05 03:29:38;;;;;;;22.00;3.10;;;;;;;4.70;83.08;101656.25;5056154;28;20108;-62
2022/02/05 03:32:04;;;;;;;10.77;2.35;;;;;;;4.79;81.16;101657.25;5055080;28;20024;-62
2022/02/05 03:34:30;;;;;;;18.63;2.50;;;;;;;4.78;81.74;101653.06;5036962;28;20075;-62
2022/02/05 03:36:55;;;;;;;10.45;2.03;;;;;;;4.81;82.49;101653.63;5056158;28;20032;-62
2022/02/05 03:39:21;;;;;;;9.82;1.85;;;;;;;4.74;81.99;101660.19;5038335;28;20028;-62
2022/02/05 03:41:46;;;;;;;10.90;2.10;;;;;;;4.75;82.26;101662.63;5038237;28;20170;-62
2022/02/05 03:44:12;;;;;;;17.27;2.50;;;;;;;4.79;81.92;101658.06;5055998;28;20024;-61
2022/02/05 03:46:37;;;;;;;12.90;2.30;;;;;;;4.80;82.18;101664.78;5038142;28;20115;-62
2022/02/05 03:49:03;;;;;;;16.08;2.60;;;;;;;4.77;82.42;101662.47;5038066;28;20023;-61
2022/02/05 03:51:28;;;;;;;21.80;2.50;;;;;;;4.73;83.94;101673.94;5056199;28;20033;-61
2022/02/05 03:53:53;;;;;;;13.43;2.15;;;;;;;4.81;81.42;101670.75;5055896;28;20013;-61
2022/02/05 03:56:19;;;;;;;16.42;2.35;;;;;;;4.74;82.71;101678.91;5053700;28;20032;-61
2022/02/05 03:58:44;;;;;;;12.73;2.28;;;;;;;4.44;84.57;101676.31;5037798;28;20021;-61
2022/02/05 04:01:09;;;;;;;15.30;2.10;;;;;;;4.50;83.96;101686.06;5037808;28;20075;-61
2022/02/05 04:03:35;;;;;;;18.02;2.92;;;;;;;4.48;83.32;101683.59;5055729;28;20438;-61
2022/02/05 04:06:00;;;;;;;9.98;1.80;;;;;;;4.39;83.99;101694.59;5055784;28;20348;-60
2022/02/05 04:08:25;;;;;;;11.35;1.92;;;;;;;4.22;83.97;101674.66;5055465;28;20056;-61
2022/02/05 04:11:28;;;;;;;14.07;1.98;;;;;;;4.49;85.03;101702.34;5037800;28;20028;-61
2022/02/05 04:16:23;;;;;;;19.70;3.38;;;;;;;4.62;82.92;101705.53;5055247;28;20052;-62
2022/02/05 04:18:51;;;;;;;12.80;2.10;;;;;;;4.69;83.53;101698.97;5055057;28;20024;-63
2022/02/05 04:21:17;;;;;;;9.30;1.80;;;;;;;4.68;83.58;101701.66;5055413;28;20025;-61
2022/02/05 04:23:43;;;;;;;11.80;2.05;;;;;;;4.68;82.76;101699.09;5055171;28;20021;-62
2022/02/05 04:26:08;;;;;;;18.17;2.20;;;;;;;4.70;83.79;101700.59;5036013;28;20029;-63
2022/02/05 04:28:35;;;;;;;17.55;2.80;;;;;;;4.73;82.68;101700.34;5053231;28;20013;-62
2022/02/05 04:31:00;;;;;;;12.65;2.08;;;;;;;4.66;83.02;101703.53;5053198;28;20113;-62
2022/02/05 04:33:25;;;;;;;12.43;2.17;;;;;;;4.64;82.55;101701.09;5054977;28;20048;-61
2022/02/05 04:35:50;;;;;;;18.33;2.65;;;;;;;4.60;83.81;101699.72;5054714;28;20083;-63
2022/02/05 04:38:17;;;;;;;14.70;2.60;;;;;;;4.73;82.95;101709.78;5053922;28;20052;-64
2022/02/05 04:40:50;;;;;;;13.50;2.28;;;;;;;4.65;83.17;101709.59;5054915;28;20051;-61
2022/02/05 05:01:40;;;;;;;15.13;2.50;;;;;;;4.32;84.20;101723.38;5055505;28;20032;-62
2022/02/05 05:09:27;;;;;;;14.75;2.65;;;;;;;4.20;84.48;101732.81;5055212;28;20435;-62
2022/02/05 05:12:16;;;;;;;14.93;2.63;;;;;;;4.21;83.60;101730.16;5036456;28;20359;-63
2022/02/05 05:20:06;;;;;;;11.77;2.08;;;;;;;4.23;84.55;101745.38;5054477;28;20435;-61
2022/02/05 05:22:31;;;;;;;11.13;2.40;;;;;;;4.21;83.80;101760.03;5036254;28;20128;-61
2022/02/05 05:24:58;;;;;;;19.05;2.17;;;;;;;4.22;83.97;101754.00;5054058;28;20051;-62
2022/02/05 05:27:24;;;;;;;13.35;2.28;;;;;;;4.10;84.90;101762.63;5054050;28;20446;-62
2022/02/05 05:29:49;;;;;;;17.02;2.47;;;;;;;4.21;84.64;101763.41;5053172;28;20056;-61
2022/02/05 05:32:14;;;;;;;15.40;2.65;;;;;;;4.28;83.13;101764.53;5053821;28;20112;-62
2022/02/05 05:34:40;;;;;;;16.52;2.55;;;;;;;4.30;83.29;101767.00;5053766;28;20101;-61
2022/02/05 05:37:05;;;;;;;10.75;2.33;;;;;;;4.28;83.88;101769.66;5054215;28;20383;-62
2022/02/05 05:39:32;;;;;;;15.43;2.67;;;;;;;4.24;84.29;101759.81;5053727;28;20024;-62
2022/02/05 05:41:58;;;;;;;18.40;2.80;;;;;;;4.37;83.82;101765.56;5053745;28;20033;-62
2022/02/05 05:47:14;;;;;;;13.77;2.45;;;;;;;4.24;84.43;101764.91;5053687;28;20488;-60
2022/02/05 05:50:46;;;;;;;17.00;2.47;;;;;;;4.24;84.51;101770.84;5035794;28;20021;-61
2022/02/05 05:52:31;;;;;;;14.10;2.55;;;;;;;4.23;84.00;101770.94;5048708;28;20090;-62
2022/02/05 05:54:57;;;;;;;17.63;2.70;;;;;;;4.07;84.66;101774.72;5035702;28;20021;-61
2022/02/05 05:57:23;;;;;;;18.23;2.60;;;;;;;4.05;85.60;101776.56;5053761;28;20033;-61
2022/02/05 05:59:48;;;;;;;11.32;2.30;;;;;;;4.07;85.27;101782.41;5053752;28;20025;-61
2022/02/05 06:02:14;;;;;;;13.20;2.30;;;;;;;4.20;83.89;101789.09;5053480;28;20028;-62
2022/02/05 06:04:39;;;;;;;19.27;2.72;;;;;;;4.22;84.02;101785.50;5053267;28;20025;-62
2022/02/05 06:07:04;;;;;;;14.95;2.60;;;;;;;4.15;84.36;101793.78;5053383;28;20370;-63
2022/02/05 06:09:30;;;;;;;17.25;2.80;;;;;;;4.15;84.52;101793.78;5053400;28;20081;-61
2022/02/05 06:11:55;;;;;;;9.68;2.53;;;;;;;4.21;84.59;101783.06;5035443;28;20040;-62
2022/02/05 06:14:25;;;;;;;15.65;2.42;;;;;;;4.21;83.73;101777.97;5035388;28;20166;-63
2022/02/05 06:17:01;;;;;;;13.55;2.42;;;;;;;4.15;84.02;101775.88;5031728;28;20069;-62
2022/02/05 06:19:26;;;;;;;11.40;2.05;;;;;;;4.15;84.61;101779.25;5032018;28;20041;-62
2022/02/05 06:21:51;;;;;;;9.55;2.20;;;;;;;4.24;82.96;101775.16;5033257;28;20380;-62
2022/02/05 06:24:17;;;;;;;17.17;3.28;;;;;;;4.14;83.77;101779.34;5033187;28;20060;-62
2022/02/05 06:26:42;;;;;;;13.10;2.63;;;;;;;3.98;84.33;101774.63;5033179;28;20384;-63
2022/02/05 06:29:07;;;;;;;19.40;3.10;;;;;;;4.10;83.01;101780.53;5033220;28;20017;-62
2022/02/05 06:31:33;;;;;;;13.30;2.75;;;;;;;4.06;83.35;101785.09;5033241;28;20029;-62
2022/02/05 06:33:58;;;;;;;7.65;2.42;;;;;;;4.07;83.33;101789.25;5034289;28;20031;-61
2022/02/05 06:36:24;;;;;;;19.45;2.70;;;;;;;4.05;83.73;101797.03;5033164;28;20021;-62
2022/02/05 06:38:49;;;;;;;8.85;2.30;;;;;;;4.09;83.27;101794.28;5033099;28;20079;-61
2022/02/05 06:41:15;;;;;;;15.23;2.95;;;;;;;4.06;85.08;101808.91;5031751;28;20022;-61
2022/02/05 06:43:41;;;;;;;10.80;2.40;;;;;;;4.16;83.58;101809.00;5033033;28;20021;-61
2022/02/05 06:46:06;;;;;;;19.40;3.35;;;;;;;4.13;84.63;101804.13;5031745;28;20029;-61
2022/02/05 06:48:32;;;;;;;16.55;2.42;;;;;;;4.12;84.14;101806.81;5032686;28;20096;-61
2022/02/05 06:50:57;;;;;;;12.70;2.92;;;;;;;4.09;83.80;101810.44;5030921;28;20567;-61
2022/02/05 06:53:22;;;;;;;11.48;2.50;;;;;;;3.97;85.67;101804.53;5032105;28;20060;-61
2022/02/05 06:55:47;;;;;;;14.20;2.33;;;;;;;3.93;84.48;101812.53;5034012;28;20033;-61
2022/02/05 06:58:13;;;;;;;12.13;2.55;;;;;;;3.91;84.29;101817.75;5036993;28;20105;-61
2022/02/05 07:00:38;;;;;;;16.15;2.65;;;;;;;3.80;84.81;101818.59;5037384;28;20426;-61
2022/02/05 07:03:04;;;;;;;10.73;2.70;;;;;;;3.91;84.79;101824.63;5035312;28;20018;-62
2022/02/05 07:05:29;;;;;;;15.23;2.80;;;;;;;3.93;84.59;101825.31;5035600;28;20032;-64
2022/02/05 07:07:55;;;;;;;17.70;2.90;;;;;;;3.92;84.51;101828.81;5035534;28;20028;-62
2022/02/05 07:10:20;;;;;;;12.80;2.92;;;;;;;3.84;84.84;101834.50;5035479;28;20399;-63
2022/02/05 07:15:30;;;;;;;17.55;3.00;;;;;;;3.82;85.02;101836.38;5036858;28;20044;-62
2022/02/05 07:21:15;;;;;;;10.45;2.83;;;;;;;3.92;84.51;101847.53;5057078;28;20055;-61
2022/02/05 07:31:19;;;;;;;14.20;2.47;;;;;;;4.18;84.31;101847.28;5056655;28;20091;-62
2022/02/05 07:33:45;;;;;;;14.90;2.83;;;;;;;4.22;83.63;101853.78;5055984;28;20040;-64
2022/02/05 07:36:11;;;;;;;8.90;2.30;;;;;;;4.13;84.23;101851.94;5038215;28;20472;-62
2022/02/05 07:38:37;;;;;;;13.10;2.63;;;;;;;4.15;84.75;101850.88;5056177;28;20029;-62
2022/02/05 07:41:02;;;;;;;15.10;2.53;;;;;;;4.31;84.30;101858.16;5056008;28;20036;-62
2022/02/05 07:43:34;;;;;;;17.35;2.15;;;;;;;4.40;83.58;101860.03;5055138;28;20033;-64
2022/02/05 07:46:00;;;;;;;12.40;2.38;;;;;;;4.23;83.85;101856.22;5053992;28;20381;-63
2022/02/05 07:48:26;;;;;;;16.17;2.90;;;;;;;4.23;83.38;101861.34;5053867;28;20028;-63
2022/02/05 07:50:51;;;;;;;15.30;3.17;;;;;;;4.32;83.98;101861.56;5054015;28;20388;-62
2022/02/05 07:53:16;;;;;;;12.68;2.53;;;;;;;4.21;83.49;101854.72;5054049;28;20123;-62
2022/02/05 07:55:42;;;;;;;14.88;2.60;;;;;;;4.22;83.40;101858.88;5053902;28;20017;-64
2022/02/05 07:58:07;;;;;;;11.60;2.50;;;;;;;4.15;84.03;101861.13;5053935;28;20052;-64
2022/02/05 08:00:32;;;;;;;10.88;2.63;;;;;;;4.26;83.41;101855.19;5056166;28;20028;-61
2022/02/05 08:02:58;;;;;;;10.32;2.60;;;;;;;4.25;83.09;101856.91;5038880;28;20459;-62
2022/02/05 08:05:24;;;;;;;20.83;3.38;;;;;;;4.29;82.73;101855.75;5037974;28;20021;-61
2022/02/05 08:07:50;;;;;;;16.77;2.97;;;;;;;4.42;82.43;101855.59;5054836;28;20025;-62
2022/02/05 08:10:16;;;;;;;14.05;2.58;;;;;;;4.35;82.98;101851.91;5055720;28;20077;-63
2022/02/05 08:12:49;;;;;;;14.60;2.30;;;;;;;4.36;82.13;101858.63;5055430;28;20024;-62
2022/02/05 08:15:18;;;;;;;17.90;2.87;;;;;;;4.40;82.89;101856.63;5055841;28;20430;-63
2022/02/05 08:17:43;;;;;;;14.85;2.85;;;;;;;4.55;81.90;101860.56;5055365;28;20344;-63
2022/02/05 08:20:09;;;;;;;12.00;2.72;;;;;;;4.52;81.86;101859.06;5055482;28;20033;-63
2022/02/05 08:22:35;;;;;;;22.10;2.80;;;;;;;4.43;83.32;101851.28;5037544;28;20119;-62
2022/02/05 08:25:00;;;;;;;12.35;2.65;;;;;;;4.56;82.90;101858.81;5037752;28;20163;-63
2022/02/05 08:27:26;;;;;;;11.38;2.55;;;;;;;4.60;82.52;101863.56;5037500;28;20494;-62
2022/02/05 08:29:57;;;;;;;14.43;2.42;;;;;;;4.60;83.12;101863.56;5037319;28;20543;-63
2022/02/05 08:32:25;;;;;;;18.73;2.88;;;;;;;4.75;82.89;101856.44;5055791;28;20108;-62
2022/02/05 08:34:51;;;;;;;20.02;2.97;;;;;;;4.77;82.18;101863.97;5055144;28;20036;-62
2022/02/05 08:37:17;;;;;;;10.98;2.60;;;;;;;4.82;81.89;101872.13;5055364;28;20017;-62
2022/02/05 08:39:43;;;;;;;12.38;2.50;;;;;;;4.95;82.24;101870.22;5037518;28;20028;-62
2022/02/05 08:42:09;;;;;;;10.88;2.65;;;;;;;5.05;82.25;101862.59;5055187;28;20111;-62
2022/02/05 08:44:34;;;;;;;13.50;2.58;;;;;;;5.20;80.44;101874.16;5054848;28;20071;-63
2022/02/05 08:47:00;;;;;;;18.35;3.47;;;;;;;5.13;81.20;101885.84;5054714;28;20053;-62
2022/02/05 08:49:28;;;;;;;19.40;2.65;;;;;;;5.17;80.99;101890.59;5037064;28;20020;-64
2022/02/05 08:51:54;;;;;;;13.98;2.75;;;;;;;5.31;80.87;101894.59;5054700;28;20031;-61
2022/02/05 08:54:20;;;;;;;12.20;2.35;;;;;;;5.22;81.00;101899.66;5036636;28;20467;-61
2022/02/05 08:56:45;;;;;;;12.45;2.55;;;;;;;5.13;80.94;101907.16;5035381;28;20032;-62
2022/02/05 08:59:11;;;;;;;21.02;2.75;;;;;;;5.35;80.21;101906.25;5052420;28;20150;-63
2022/02/05 09:01:52;;;;;;;19.73;2.80;;;;;;;5.65;79.21;101914.91;5053033;28;20034;-62
2022/02/05 09:07:11;;;;;;;14.20;2.92;;;;;;;5.56;79.56;101923.38;5039127;28;20110;-63
2022/02/05 09:09:51;;;;;;;17.00;3.15;;;;;;;5.81;80.42;101917.00;5034510;28;20025;-63
2022/02/05 09:12:32;;;;;;;15.75;2.30;;;;;;;5.99;78.33;101920.66;5034835;28;20383;-63
2022/02/05 09:14:58;;;;;;;10.98;2.38;;;;;;;6.03;78.34;101910.94;5052717;28;20036;-63
2022/02/05 09:17:23;;;;;;;14.10;2.88;;;;;;;6.10;78.17;101906.91;5052492;28;20049;-62
2022/02/05 09:19:49;;;;;;;12.95;2.50;;;;;;;6.21;76.80;101899.09;5052854;28;20043;-64
2022/02/05 09:22:15;;;;;;;11.88;2.42;;;;;;;6.44;76.60;101898.88;5054229;28;20100;-62
2022/02/05 09:24:41;;;;;;;13.35;2.17;;;;;;;6.95;75.25;101898.66;5054047;28;20064;-62
2022/02/05 09:27:07;;;;;;;11.68;2.70;;;;;;;7.00;74.73;101904.22;5036173;28;20025;-62
2022/02/05 09:29:40;;;;;;;14.55;2.40;;;;;;;6.78;74.58;101902.72;5054319;28;20017;-60
2022/02/05 09:32:05;;;;;;;17.75;2.33;;;;;;;6.80;75.46;101894.06;5054500;28;20078;-61
2022/02/05 09:34:31;;;;;;;13.55;2.33;;;;;;;6.84;75.67;101887.72;5053904;28;20024;-61
2022/02/05 09:36:58;;;;;;;8.43;2.10;;;;;;;6.80;75.62;101892.31;5035676;28;20029;-62
2022/02/05 09:39:23;;;;;;;19.00;3.17;;;;;;;7.49;74.65;101904.16;5053420;28;20049;-62
2022/02/05 09:41:48;;;;;;;12.13;2.60;;;;;;;7.37;74.07;101902.69;5051612;28;20056;-62
2022/02/05 09:44:14;;;;;;;14.07;2.50;;;;;;;7.36;73.51;101901.06;5052148;28;20086;-63
2022/02/05 09:46:40;;;;;;;11.23;2.15;;;;;;;9.62;65.98;101895.97;5051484;28;20017;-62
2022/02/05 09:49:06;;;;;;;17.08;2.42;;;;;;;7.85;71.83;101892.28;5051491;28;20024;-63
2022/02/05 09:51:36;;;;;;;12.18;2.63;;;;;;;9.29;68.84;101918.97;5051470;28;20387;-63
2022/02/05 09:54:04;;;;;;;12.90;3.20;;;;;;;8.80;66.83;101887.66;5051795;28;20339;-64
2022/02/05 09:56:33;;;;;;;15.10;2.20;;;;;;;8.86;67.46;101891.41;5035545;28;20025;-62
2022/02/05 09:58:59;;;;;;;13.93;2.60;;;;;;;8.68;67.91;101894.00;5053423;28;20369;-62
2022/02/05 10:01:29;;;;;;;14.77;2.42;;;;;;;8.69;68.22;101887.88;5053228;28;20025;-63
2022/02/05 10:03:55;;;;;;;13.48;2.70;;;;;;;7.88;71.09;101893.72;5035613;28;20033;-61
2022/02/05 10:06:25;;;;;;;11.77;2.35;;;;;;;8.03;69.12;101882.03;5053442;28;20486;-62
2022/02/05 10:09:11;;;;;;;10.77;2.17;;;;;;;8.50;67.94;101893.97;5052515;28;20424;-62
2022/02/05 10:11:48;;;;;;;16.20;2.67;;;;;;;9.69;64.34;101895.19;5051519;28;20356;-65
2022/02/05 10:14:16;;;;;;;12.10;2.05;;;;;;;7.88;69.32;101889.41;5033287;28;20029;-66
2022/02/05 10:16:49;;;;;;;18.58;2.83;;;;;;;10.23;62.36;101870.88;5051255;28;20466;-64
2022/02/05 10:19:14;;;;;;;18.70;2.22;;;;;;;12.11;55.47;101876.69;5052219;28;20640;-66
2022/02/05 10:21:39;;;;;;;11.18;2.33;;;;;;;12.32;53.45;101876.06;5034941;28;20035;-64
2022/02/05 10:24:08;;;;;;;12.15;2.20;;;;;;;11.68;55.37;101883.13;5034050;28;20357;-62
2022/02/05 10:26:42;;;;;;;13.98;2.50;;;;;;;14.89;47.82;101888.47;5051286;28;20028;-65
2022/02/05 10:29:08;;;;;;;9.50;2.20;;;;;;;12.31;52.96;101877.03;5050063;28;20025;-65
2022/02/05 10:32:14;;;;;;;12.15;2.53;;;;;;;10.22;60.24;101880.41;5051328;28;20399;-63
2022/02/05 10:34:55;;;;;;;15.13;2.10;;;;;;;14.91;48.08;101896.09;4991126;28;20075;-65
2022/02/05 10:37:26;;;;;;;14.13;2.22;;;;;;;12.14;54.30;101884.13;4992003;28;20030;-65
2022/02/05 10:45:13;;;;;;;10.55;2.13;;;;;;;10.28;61.77;101892.72;5053856;28;20075;-64
2022/02/05 10:47:47;;;;;;;14.68;2.05;;;;;;;11.33;54.97;101871.41;5052491;28;20025;-62
2022/02/05 10:50:18;;;;;;;11.20;2.47;;;;;;;9.77;60.92;101876.38;5034746;28;20029;-64
2022/02/05 10:52:49;;;;;;;15.63;2.58;;;;;;;9.40;61.39;101890.34;5052232;28;20024;-62
2022/02/05 10:55:31;;;;;;;11.13;2.40;;;;;;;9.45;63.91;101901.03;5052073;28;20035;-63
2022/02/05 11:08:05;;;;;;;10.10;2.38;;;;;;;12.29;52.36;101873.81;5050600;28;20022;-62
2022/02/05 11:18:52;;;;;;;11.13;2.33;;;;;;;15.50;45.00;101869.63;5050258;28;20127;-65
2022/02/05 11:21:18;;;;;;;11.93;2.35;;;;;;;17.16;40.56;101871.78;5051046;28;20029;-65
2022/02/05 11:23:47;;;;;;;12.32;2.15;;;;;;;17.80;37.81;101871.78;5052611;28;20032;-63
2022/02/05 11:26:13;;;;;;;12.80;2.58;;;;;;;18.38;38.41;101856.97;5052500;28;20082;-65
2022/02/05 11:28:47;;;;;;;11.75;2.72;;;;;;;17.33;38.67;101865.09;5052788;28;20055;-63
2022/02/05 11:31:37;;;;;;;11.77;2.50;;;;;;;18.48;36.22;101857.31;5052465;28;20047;-64
2022/02/05 11:34:28;;;;;;;7.57;2.17;;;;;;;18.40;36.65;101842.66;5052656;28;20024;-63
2022/02/05 11:36:58;;;;;;;14.20;2.90;;;;;;;18.10;36.37;101846.91;5036457;28;20032;-64
2022/02/05 11:39:24;;;;;;;13.40;2.63;;;;;;;18.88;35.07;101844.72;5034700;28;20373;-65
2022/02/05 11:41:50;;;;;;;12.95;2.30;;;;;;;19.97;33.50;101836.22;5053560;28;20486;-64
2022/02/05 11:44:17;;;;;;;12.52;2.60;;;;;;;18.85;34.65;101829.44;5038390;28;20028;-65
2022/02/05 11:47:08;;;;;;;11.68;2.50;;;;;;;18.38;34.44;101839.44;5038264;28;20074;-64
2022/02/05 11:49:52;;;;;;;13.43;2.80;;;;;;;18.51;35.56;101835.94;5055907;28;20032;-64
2022/02/05 11:52:35;;;;;;;14.60;3.40;;;;;;;19.19;33.58;101824.66;5055972;28;20190;-63
2022/02/05 11:55:02;;;;;;;13.27;2.70;;;;;;;11.87;47.45;101823.19;5056013;28;20059;-63
2022/02/05 11:57:42;;;;;;;17.17;2.42;;;;;;;13.21;47.15;101839.19;5055846;28;20025;-64
2022/02/05 12:00:11;;;;;;;11.27;2.47;;;;;;;10.43;55.44;101825.72;5055710;28;20415;-64
2022/02/05 12:02:38;;;;;;;12.07;2.60;;;;;;;9.81;56.76;101825.22;5055746;28;20025;-63
2022/02/05 12:05:14;;;;;;;12.40;3.13;;;;;;;10.39;56.78;101833.00;5037858;28;20021;-65
2022/02/05 12:08:12;;;;;;;12.70;2.72;;;;;;;13.16;49.74;101828.53;5055728;28;20021;-63
2022/02/05 12:10:50;;;;;;;17.23;2.58;;;;;;;13.29;47.62;101826.13;5015669;28;20037;-64
2022/02/05 12:13:28;;;;;;;14.35;2.25;;;;;;;10.65;55.62;101824.28;5056146;28;20464;-63
2022/02/05 12:15:57;;;;;;;12.55;2.30;;;;;;;13.36;46.83;101803.69;5055617;28;20041;-65
2022/02/05 12:18:26;;;;;;;12.57;2.70;;;;;;;10.76;53.94;101811.03;5037479;28;20094;-64
2022/02/05 12:21:14;;;;;;;14.25;2.30;;;;;;;9.27;57.78;101821.13;5055684;28;20025;-62
2022/02/05 12:26:08;;;;;;;15.30;2.30;;;;;;;8.50;60.22;101820.06;5054617;28;20106;-63
2022/02/05 12:28:43;;;;;;;14.07;2.13;;;;;;;9.24;58.36;101810.31;5037056;28;20108;-64
2022/02/05 12:31:17;;;;;;;11.30;2.83;;;;;;;14.98;44.59;101804.03;5055368;28;20275;-65
2022/02/05 12:33:42;;;;;;;9.45;1.98;;;;;;;15.38;43.03;101799.06;5055097;28;20383;-64
2022/02/05 12:36:08;;;;;;;10.70;2.23;;;;;;;13.75;44.68;101794.75;5055024;28;20025;-65
2022/02/05 12:38:41;;;;;;;12.13;2.45;;;;;;;15.26;43.43;101790.19;5055088;28;20036;-64
2022/02/05 12:41:09;;;;;;;13.05;2.55;;;;;;;13.29;45.46;101782.00;5055126;28;20031;-65
2022/02/05 12:43:53;;;;;;;14.68;2.20;;;;;;;15.79;42.12;101774.75;5055167;28;20135;-66
2022/02/05 12:46:23;;;;;;;10.73;2.58;;;;;;;18.18;38.12;101771.59;5035471;28;20029;-65
2022/02/05 12:48:53;;;;;;;10.00;2.35;;;;;;;10.94;53.37;101773.84;5052889;28;20025;-64
2022/02/05 12:51:19;;;;;;;12.57;2.80;;;;;;;13.24;50.16;101776.53;5052824;28;20471;-67
2022/02/05 12:53:44;;;;;;;10.32;2.33;;;;;;;14.56;44.85;101758.94;5034305;28;20027;-66
2022/02/05 12:56:13;;;;;;;12.35;2.63;;;;;;;13.58;45.72;101757.81;5034684;28;20025;-66
2022/02/05 12:58:56;;;;;;;11.98;2.53;;;;;;;13.06;50.41;101769.94;5052805;28;20116;-67
2022/02/05 13:01:23;;;;;;;12.25;2.53;;;;;;;16.26;41.77;101760.00;5054125;28;20432;-64
2022/02/05 13:03:48;;;;;;;15.02;2.20;;;;;;;12.65;48.84;101767.72;5054688;28;20471;-64
2022/02/05 13:06:21;;;;;;;11.77;2.75;;;;;;;13.23;47.04;101741.19;5054263;28;20025;-65
2022/02/05 13:08:50;;;;;;;;;;;;;;;10.80;53.32;101749.47;5035021;28;20033;-66
2022/02/05 13:11:20;;;;;;;18.65;2.67;;;;;;;11.28;54.52;101738.19;5052528;28;20314;-67
2022/02/05 13:13:53;;;;;;;9.85;2.30;;;;;;;10.02;56.68;101739.59;5052497;28;20017;-65
2022/02/05 13:16:23;;;;;;;8.65;2.30;;;;;;;10.58;55.65;101733.66;5034377;28;20098;-63
2022/02/05 13:19:18;;;;;;;13.02;2.60;;;;;;;10.10;58.19;101724.13;5051154;28;20356;-65
2022/02/05 13:35:58;;;;;;;13.43;2.25;;;;;;;8.40;62.07;101733.53;5053893;28;20035;-64
2022/02/05 13:38:24;;;;;;;15.15;2.28;;;;;;;8.41;63.04;101714.56;5052645;28;20479;-65
2022/02/05 13:41:02;;;;;;;9.35;2.00;;;;;;;8.70;63.11;101715.06;5035544;28;20056;-65
2022/02/05 13:43:41;;;;;;;14.20;2.10;;;;;;;8.53;63.51;101724.47;5035867;28;20074;-64
2022/02/05 13:46:12;;;;;;;13.25;2.30;;;;;;;8.19;63.54;101706.28;5035960;28;20025;-63
2022/02/05 13:48:37;;;;;;;10.75;2.08;;;;;;;8.10;63.72;101702.84;5053671;28;20119;-65
2022/02/05 13:51:07;;;;;;;7.45;1.80;;;;;;;8.10;63.87;101713.13;5053764;28;20103;-64
2022/02/05 13:53:33;;;;;;;10.32;1.88;;;;;;;8.42;63.62;101716.97;5054017;28;20024;-62
2022/02/05 13:56:04;;;;;;;12.80;1.80;;;;;;;8.51;63.49;101710.09;5035309;28;20125;-64
2022/02/05 13:58:37;;;;;;;8.23;1.83;;;;;;;8.31;62.30;101696.56;5035597;28;20025;-64
2022/02/05 14:01:04;;;;;;;14.98;2.25;;;;;;;8.14;62.89;101695.63;5035531;28;20047;-64
2022/02/05 14:03:40;;;;;;;10.70;2.08;;;;;;;8.20;63.53;101710.50;5053190;28;20041;-61
2022/02/05 14:06:08;;;;;;;9.05;2.00;;;;;;;8.01;66.02;101701.16;5053289;28;20030;-62
2022/02/05 14:08:36;;;;;;;13.05;2.00;;;;;;;7.85;65.86;101704.41;5035514;28;20028;-64
2022/02/05 14:11:07;;;;;;;17.02;2.10;;;;;;;7.99;65.97;101702.25;5034426;28;20116;-64
2022/02/05 14:13:33;;;;;;;17.30;2.33;;;;;;;8.08;66.51;101696.22;5051666;28;20063;-64
2022/02/05 14:16:01;;;;;;;11.35;2.20;;;;;;;8.07;65.86;101690.25;5052603;28;20126;-65
2022/02/05 14:18:29;;;;;;;9.82;2.00;;;;;;;8.04;66.61;101687.19;5051865;28;20082;-63
2022/02/05 14:21:00;;;;;;;9.63;2.42;;;;;;;7.86;67.27;101682.03;5032528;28;20029;-66